Decoded Metar for KPUB (PUEBLO MEMORIAL in CO, USA) (IATA:PUB) | Meteo·Mobile Aviation Weather
aviador You're here:

KPUB Decoded Metar

PUEBLO MEMORIAL in CO, USA
Report Time2018-09-23 12:53:00
UTC Time2018-09-23 13:04:08
Flight Rules vfr VFR
WindCalm
Visibility9999 m
Phenomena:N/A
Clouds:N/A
Expected CloudBase > 2,800 ft AGL from Temp-Dew spread
CeilingNone
Temp07°C (ISA +1)
Dew Point00°C (61% RH)
AAT5.0°C
QNH1018 hPa
Density Alt4,734 ft
Elevation4,659 ft
Report Wrong Elevation
Raw Report
KPUB 231253Z 00000KT 10SM CLR 07/00 A3007 RMK AO2 SLP136
T00720000=

Extra information for KPUB:More info

Metar Taf Metar & Taf Last 4 Metars F.Rules Stats Wind Profile Meteogram Temp Stats Airport Information Weather charts Add Link Nearby VenuesMetar ALERT Operation Metar Decoded Social comments

AIRNAV info for KPUB